Durham — WDF3868 — position and weather

sailwx.info

Track history (hours):
 
Tides and Currents Weather Stations Pressure Air Temp Water Temp Dewpoint Dewpoint Depression Visibility Wind Speed Wind Dir Waves Ship Positions

Durham

Owner: KEN'S BOOMING & BOAT SERVICE, INC., BAYONNE, NJ. More information available from US FCC via Universal Licensing System and Coast Guard Vessel Documentation Center.

Last reported at 2017-May-23 17:00 UTC. Time now 2017-May-23 17:06 UTC.
Position N 40°40' W 074°08'.

Length 18 m.

MMSI: 367444950.

Date/timePositionNaut miles runAvg speedWind from/ knotsBaromVisibWave heightAir tempDewpointWater temp
2017-May-23 17:00N 40°40' W 074°08'2 3.0
2017-May-23 16:28N 40°39' W 074°08'2 4.6
2017-May-23 16:00N 40°39' W 074°05'3 6.2
2017-May-23 15:30N 40°41' W 074°02'3 5.8
2017-May-23 15:00N 40°42' W 073°58'0 0.0
2017-May-23 14:30N 40°42' W 073°58'6 5.5
2017-May-23 13:30N 40°39' W 074°05'  
2017-May-16 19:12N 40°39' W 074°07'0 0.0
2017-May-16 16:04N 40°39' W 074°07'0 0.0
2017-May-16 15:59N 40°39' W 074°07'0 0.0
2017-May-16 15:30N 40°39' W 074°07'0 0.0
2017-May-16 15:00N 40°39' W 074°07'0 0.0
2017-May-16 14:00N 40°39' W 074°07'0 0.0
2017-May-16 13:30N 40°39' W 074°07'0 0.0
2017-May-16 13:00N 40°39' W 074°07'0 0.0
2017-May-16 12:30N 40°39' W 074°07'0 0.0
2017-May-16 11:59N 40°39' W 074°07'0 0.0
2017-May-16 11:30N 40°39' W 074°07'0 0.0
2017-May-16 10:57N 40°39' W 074°07'0 0.0
2017-May-15 23:59N 40°39' W 074°07'4 8.0
2017-May-15 23:31N 40°41' W 074°03'4 7.0
2017-May-15 23:00N 40°42' W 073°58'1 1.8
2017-May-15 22:30N 40°42' W 073°60'2 4.2
2017-May-15 22:00N 40°41' W 074°02'2 3.0
2017-May-15 21:31N 40°40' W 074°04'2 3.5
2017-May-15 21:00N 40°39' W 074°05'3 5.5
2017-May-15 20:30N 40°38' W 074°09'3 4.5
2017-May-15 19:56N 40°41' W 074°08'3 5.9
2017-May-15 19:29N 40°43' W 074°07'0 0.2
2017-May-15 19:00N 40°44' W 074°07'0 0.0
2017-May-15 18:30N 40°44' W 074°07'1 1.8
2017-May-15 18:00N 40°43' W 074°07'4 7.4
2017-May-15 17:29N 40°39' W 074°09'2 0.7
2017-May-15 14:00N 40°39' W 074°06'3 5.6
2017-May-15 13:30N 40°40' W 074°03'2 4.2
2017-May-15 13:00N 40°39' W 074°05'  
Track history (hours):
 
Tides and Currents Weather Stations Pressure Air Temp Water Temp Dewpoint Dewpoint Depression Visibility Wind Speed Wind Dir Waves Ship Positions

Durham

Owner: KEN'S BOOMING & BOAT SERVICE, INC., BAYONNE, NJ. More information available from US FCC via Universal Licensing System and Coast Guard Vessel Documentation Center.

Last reported at 2017-May-23 17:00 UTC. Time now 2017-May-23 17:06 UTC.
Position N 40°40' W 074°08'.

Length 18 m.

MMSI: 367444950.

Date/timePositionNaut miles runAvg speedWind from/ knotsBaromVisibWave heightAir tempDewpointWater temp
2017-May-23 17:00N 40°40' W 074°08'2 3.0
2017-May-23 16:28N 40°39' W 074°08'2 4.6
2017-May-23 16:00N 40°39' W 074°05'3 6.2
2017-May-23 15:30N 40°41' W 074°02'3 5.8
2017-May-23 15:00N 40°42' W 073°58'0 0.0
2017-May-23 14:30N 40°42' W 073°58'6 5.5
2017-May-23 13:30N 40°39' W 074°05'  
2017-May-16 19:12N 40°39' W 074°07'0 0.0
2017-May-16 16:04N 40°39' W 074°07'0 0.0
2017-May-16 15:59N 40°39' W 074°07'0 0.0
2017-May-16 15:30N 40°39' W 074°07'0 0.0
2017-May-16 15:00N 40°39' W 074°07'0 0.0
2017-May-16 14:00N 40°39' W 074°07'0 0.0
2017-May-16 13:30N 40°39' W 074°07'0 0.0
2017-May-16 13:00N 40°39' W 074°07'0 0.0
2017-May-16 12:30N 40°39' W 074°07'0 0.0
2017-May-16 11:59N 40°39' W 074°07'0 0.0
2017-May-16 11:30N 40°39' W 074°07'0 0.0
2017-May-16 10:57N 40°39' W 074°07'0 0.0
2017-May-15 23:59N 40°39' W 074°07'4 8.0
2017-May-15 23:31N 40°41' W 074°03'4 7.0
2017-May-15 23:00N 40°42' W 073°58'1 1.8
2017-May-15 22:30N 40°42' W 073°60'2 4.2
2017-May-15 22:00N 40°41' W 074°02'2 3.0
2017-May-15 21:31N 40°40' W 074°04'2 3.5
2017-May-15 21:00N 40°39' W 074°05'3 5.5
2017-May-15 20:30N 40°38' W 074°09'3 4.5
2017-May-15 19:56N 40°41' W 074°08'3 5.9
2017-May-15 19:29N 40°43' W 074°07'0 0.2
2017-May-15 19:00N 40°44' W 074°07'0 0.0
2017-May-15 18:30N 40°44' W 074°07'1 1.8
2017-May-15 18:00N 40°43' W 074°07'4 7.4
2017-May-15 17:29N 40°39' W 074°09'2 0.7
2017-May-15 14:00N 40°39' W 074°06'3 5.6
2017-May-15 13:30N 40°40' W 074°03'2 4.2
2017-May-15 13:00N 40°39' W 074°05'  

Dump ship's entire track history